Time;durP1;ratioP1;P1;durP2;ratioP2;P2;SDS_P1;SDS_P2;PMS_P1;PMS_P2;Temp;Humidity;BMP_temperature;BMP_pressure;BME280_temperature;BME280_humidity;BME280_pressure;Samples;Min_cycle;Max_cycle;Signal;HPM_P1;HPM_P2
2023/07/11 00:00:28;;;;;;;1.33;0.55;;;;;;;25.13;100.00;101691.28;10436746;28;20041;-79
2023/07/11 00:05:29;;;;;;;0.30;0.30;;;;;;;25.23;100.00;101692.78;10469964;28;20056;-79
2023/07/11 00:10:31;;;;;;;0.13;0.13;;;;;;;25.10;100.00;101691.34;10453226;28;20148;-79
2023/07/11 00:15:33;;;;;;;0.47;0.28;;;;;;;25.38;100.00;101681.06;10458050;28;20518;-79
2023/07/11 00:20:34;;;;;;;0.20;0.20;;;;;;;25.30;100.00;101683.84;10458943;28;20048;-79
2023/07/11 00:25:36;;;;;;;0.08;0.08;;;;;;;25.62;100.00;101674.31;10436824;28;20049;-79
2023/07/11 00:30:41;;;;;;;0.05;0.05;;;;;;;25.50;100.00;101664.94;10437162;28;20040;-79
2023/07/11 00:35:45;;;;;;;0.00;0.00;;;;;;;25.10;100.00;101652.66;10438325;28;20041;-79
2023/07/11 00:40:49;;;;;;;0.38;0.28;;;;;;;25.47;100.00;101657.09;10454174;28;20056;-79
2023/07/11 00:46:02;;;;;;;0.20;0.20;;;;;;;25.43;100.00;101655.44;10468227;28;20415;-79
2023/07/11 00:51:08;;;;;;;0.30;0.20;;;;;;;25.59;100.00;101658.56;10451941;28;20037;-79
2023/07/11 00:56:14;;;;;;;1.45;0.22;;;;;;;25.22;100.00;101648.00;10439035;28;20127;-79
2023/07/11 01:01:16;;;;;;;0.03;0.03;;;;;;;24.77;100.00;101651.66;10447095;28;20061;-79
2023/07/11 01:06:23;;;;;;;0.10;0.10;;;;;;;25.19;100.00;101641.03;10436939;28;20044;-79
2023/07/11 01:11:28;;;;;;;0.40;0.30;;;;;;;25.57;100.00;101655.09;10434516;28;20132;-79
2023/07/11 01:16:29;;;;;;;0.80;0.30;;;;;;;25.26;100.00;101645.28;10467732;28;20049;-79
2023/07/11 01:21:32;;;;;;;0.45;0.22;;;;;;;25.27;100.00;101647.00;10467634;28;20037;-79
2023/07/11 01:26:34;;;;;;;0.00;0.00;;;;;;;24.94;100.00;101638.97;10453184;28;20059;-79
2023/07/11 01:31:36;;;;;;;0.52;0.17;;;;;;;25.24;100.00;101636.53;10435070;28;20051;-79
2023/07/11 01:36:39;;;;;;;0.82;0.40;;;;;;;25.13;100.00;101628.88;10434747;28;20048;-79
2023/07/11 01:41:41;;;;;;;0.30;0.22;;;;;;;25.33;100.00;101631.03;10440737;28;20048;-79
2023/07/11 01:46:43;;;;;;;0.70;0.45;;;;;;;25.01;100.00;101618.63;10441506;28;20063;-79
2023/07/11 01:51:45;;;;;;;0.05;0.05;;;;;;;25.02;100.00;101610.66;10467223;28;20052;-79
2023/07/11 01:56:47;;;;;;;0.10;0.08;;;;;;;25.35;100.00;101613.38;10449671;28;20045;-79
2023/07/11 02:01:49;;;;;;;0.20;0.20;;;;;;;24.94;100.00;101602.06;10456446;28;20133;-79
2023/07/11 02:06:51;;;;;;;1.35;0.28;;;;;;;25.05;100.00;101600.97;10441322;28;20045;-79
2023/07/11 02:11:53;;;;;;;0.30;0.30;;;;;;;25.05;100.00;101585.16;10465960;28;20123;-79
2023/07/11 02:16:55;;;;;;;0.45;0.30;;;;;;;24.84;100.00;101577.72;10474219;28;20070;-79
2023/07/11 02:21:56;;;;;;;0.15;0.15;;;;;;;24.48;100.00;101582.00;10457623;28;20051;-79
2023/07/11 02:26:59;;;;;;;0.17;0.17;;;;;;;24.46;100.00;101568.84;10440212;28;20132;-79
2023/07/11 02:32:00;;;;;;;0.15;0.10;;;;;;;24.96;100.00;101568.66;10457477;28;20040;-79
2023/07/11 02:37:02;;;;;;;0.00;0.00;;;;;;;24.63;100.00;101557.94;10457981;28;20049;-79
2023/07/11 02:42:05;;;;;;;0.00;0.00;;;;;;;24.88;100.00;101557.41;10458100;28;20087;-79
2023/07/11 02:47:07;;;;;;;0.10;0.10;;;;;;;24.87;100.00;101546.00;10440610;28;20160;-78
2023/07/11 02:52:10;;;;;;;0.30;0.10;;;;;;;24.52;100.00;101541.53;10462845;28;20041;-79
2023/07/11 02:57:12;;;;;;;1.35;0.95;;;;;;;24.30;100.00;101535.84;10456149;28;20041;-79
2023/07/11 03:02:14;;;;;;;0.28;0.28;;;;;;;24.63;100.00;101528.97;10456507;28;20051;-79
2023/07/11 03:07:15;;;;;;;0.00;0.00;;;;;;;24.57;100.00;101518.56;10456500;28;20135;-79
2023/07/11 03:12:17;;;;;;;0.43;0.10;;;;;;;24.43;100.00;101520.66;10439112;28;20045;-79
2023/07/11 03:17:19;;;;;;;0.10;0.10;;;;;;;24.35;100.00;101513.78;10458231;28;20048;-79
2023/07/11 03:22:21;;;;;;;0.08;0.05;;;;;;;23.94;100.00;101517.31;10455194;28;20411;-79
2023/07/11 03:27:23;;;;;;;0.60;0.43;;;;;;;24.10;100.00;101513.47;10467085;28;20044;-79
2023/07/11 03:32:24;;;;;;;0.32;0.17;;;;;;;24.27;100.00;101504.34;10467395;28;20045;-79
2023/07/11 03:37:26;;;;;;;4.90;0.30;;;;;;;24.37;100.00;101498.84;10433938;28;20041;-79
2023/07/11 03:42:28;;;;;;;0.00;0.00;;;;;;;24.62;100.00;101495.63;10470664;28;20040;-79
2023/07/11 03:47:30;;;;;;;0.22;0.10;;;;;;;24.26;100.00;101490.28;10424337;28;20761;-79
2023/07/11 03:52:31;;;;;;;0.52;0.35;;;;;;;24.30;100.00;101483.19;10457765;28;20052;-79
2023/07/11 03:57:33;;;;;;;0.70;0.32;;;;;;;24.08;100.00;101474.03;10436900;28;20119;-79
2023/07/11 04:02:35;;;;;;;0.00;0.00;;;;;;;24.25;100.00;101472.75;10453887;28;20055;-79
2023/07/11 04:07:37;;;;;;;0.30;0.30;;;;;;;24.36;100.00;101462.88;10452026;28;20499;-79
2023/07/11 04:12:39;;;;;;;0.95;0.30;;;;;;;24.35;100.00;101471.66;10454847;28;20051;-79
2023/07/11 04:17:41;;;;;;;0.43;0.25;;;;;;;24.46;100.00;101465.28;10449254;28;20055;-79
2023/07/11 04:22:43;;;;;;;1.52;0.47;;;;;;;24.45;100.00;101466.19;10435250;28;20605;-79
2023/07/11 04:27:44;;;;;;;0.32;0.22;;;;;;;24.62;100.00;101456.09;10419491;28;20041;-79
2023/07/11 04:32:48;;;;;;;0.38;0.22;;;;;;;24.70;100.00;101448.06;10442299;28;20538;-79
2023/07/11 04:37:50;;;;;;;0.30;0.20;;;;;;;24.42;100.00;101445.19;10468770;28;20049;-79
2023/07/11 04:42:52;;;;;;;0.35;0.17;;;;;;;25.22;100.00;101440.56;10429426;28;20056;-79
2023/07/11 04:47:53;;;;;;;3.80;0.85;;;;;;;24.87;100.00;101450.25;10435458;28;20041;-79
2023/07/11 04:52:55;;;;;;;0.52;0.30;;;;;;;24.69;100.00;101449.81;10455790;28;20091;-79
2023/07/11 04:57:57;;;;;;;6.13;0.85;;;;;;;25.02;100.00;101439.34;10412076;28;20045;-79
2023/07/11 05:02:58;;;;;;;0.00;0.00;;;;;;;25.50;100.00;101438.06;10442712;28;20053;-79
2023/07/11 05:08:00;;;;;;;0.38;0.25;;;;;;;25.50;100.00;101426.66;10458175;28;20052;-79
2023/07/11 05:13:02;;;;;;;0.20;0.20;;;;;;;25.49;100.00;101425.78;10446575;28;20055;-79
2023/07/11 05:18:03;;;;;;;1.33;0.60;;;;;;;24.85;100.00;101423.06;10434388;28;20470;-79
2023/07/11 05:23:06;;;;;;;0.55;0.47;;;;;;;25.29;100.00;101423.66;10437910;28;20053;-79
2023/07/11 05:28:07;;;;;;;1.95;0.63;;;;;;;25.64;100.00;101408.66;10451615;28;20403;-79
2023/07/11 05:33:09;;;;;;;3.17;2.33;;;;;;;25.81;100.00;101412.53;10434605;28;20048;-79
2023/07/11 05:38:11;;;;;;;0.63;0.50;;;;;;;25.95;100.00;101413.00;10451954;28;20053;-79
2023/07/11 05:43:12;;;;;;;0.20;0.20;;;;;;;26.49;100.00;101410.47;10452591;28;20514;-79
2023/07/11 05:48:14;;;;;;;0.88;0.57;;;;;;;26.09;100.00;101404.69;10454807;28;20052;-79
2023/07/11 05:53:16;;;;;;;0.20;0.20;;;;;;;26.05;100.00;101397.75;10436462;28;20045;-79
2023/07/11 05:58:18;;;;;;;0.35;0.35;;;;;;;26.32;100.00;101392.53;10454697;28;20049;-79
2023/07/11 06:03:20;;;;;;;0.00;0.00;;;;;;;26.95;100.00;101386.06;10465409;28;20053;-79
2023/07/11 06:08:22;;;;;;;0.43;0.40;;;;;;;26.86;100.00;101379.31;10441846;28;20041;-79
2023/07/11 06:13:25;;;;;;;0.20;0.20;;;;;;;26.99;100.00;101369.19;10442164;28;20115;-79
2023/07/11 06:18:26;;;;;;;0.43;0.30;;;;;;;27.10;100.00;101366.16;10446230;28;20079;-79
2023/07/11 06:23:28;;;;;;;2.08;0.50;;;;;;;27.19;100.00;101358.75;10441206;28;20045;-79
2023/07/11 06:28:30;;;;;;;0.60;0.40;;;;;;;27.32;100.00;101355.63;10442142;28;20044;-79
2023/07/11 06:33:32;;;;;;;0.25;0.15;;;;;;;27.00;100.00;101362.94;10440427;28;20103;-79
2023/07/11 06:38:34;;;;;;;0.63;0.63;;;;;;;27.27;100.00;101358.44;10456374;28;20048;-79
2023/07/11 06:43:36;;;;;;;0.20;0.20;;;;;;;27.95;100.00;101355.03;10437174;28;20041;-79
2023/07/11 06:48:38;;;;;;;0.20;0.10;;;;;;;27.89;100.00;101356.13;10473015;28;20070;-79
2023/07/11 06:53:40;;;;;;;0.30;0.10;;;;;;;28.24;100.00;101347.69;10440934;28;20041;-79
2023/07/11 06:58:41;;;;;;;0.00;0.00;;;;;;;28.42;100.00;101340.75;10472463;28;20041;-80
2023/07/11 07:03:43;;;;;;;0.15;0.10;;;;;;;29.29;100.00;101335.22;10439994;28;20049;-79
2023/07/11 07:08:44;;;;;;;0.15;0.15;;;;;;;29.31;100.00;101338.66;10445782;28;20032;-80
2023/07/11 07:13:46;;;;;;;0.82;0.32;;;;;;;30.14;100.00;101332.97;10457741;28;20044;-80
2023/07/11 07:19:06;;;;;;;0.20;0.20;;;;;;;30.56;100.00;101315.84;10460528;28;20495;-80
2023/07/11 07:24:07;;;;;;;0.38;0.20;;;;;;;30.61;100.00;101318.22;10464806;28;20045;-80
2023/07/11 07:29:09;;;;;;;0.20;0.20;;;;;;;30.69;100.00;101313.38;10457002;28;20044;-80
2023/07/11 07:34:10;;;;;;;0.68;0.15;;;;;;;30.53;100.00;101316.84;10458738;28;20053;-80
2023/07/11 07:39:12;;;;;;;0.25;0.10;;;;;;;30.63;100.00;101317.25;10454889;28;20036;-80
2023/07/11 07:44:14;;;;;;;0.52;0.30;;;;;;;30.41;100.00;101308.63;10432575;28;20070;-79
2023/07/11 07:49:15;;;;;;;0.98;0.10;;;;;;;31.11;100.00;101308.53;10429794;28;20052;-80
2023/07/11 07:54:18;;;;;;;0.45;0.25;;;;;;;31.49;100.00;101302.88;10447089;28;20069;-79
2023/07/11 07:59:19;;;;;;;5.15;0.52;;;;;;;30.68;100.00;101301.88;10436603;28;20060;-79
2023/07/11 08:04:21;;;;;;;0.10;0.10;;;;;;;31.68;100.00;101292.06;10455381;28;20040;-80
2023/07/11 08:09:23;;;;;;;0.10;0.10;;;;;;;32.36;100.00;101288.13;10458631;28;20419;-80
2023/07/11 08:14:25;;;;;;;0.10;0.10;;;;;;;32.27;100.00;101286.91;10436588;28;20128;-80
2023/07/11 08:19:26;;;;;;;0.00;0.00;;;;;;;32.00;100.00;101283.16;10439642;28;20091;-81
2023/07/11 08:24:28;;;;;;;0.13;0.13;;;;;;;31.98;100.00;101283.25;10435706;28;20140;-80
2023/07/11 08:29:30;;;;;;;0.25;0.25;;;;;;;31.88;100.00;101282.06;10453969;28;20037;-79
2023/07/11 08:34:32;;;;;;;0.15;0.15;;;;;;;31.78;100.00;101284.41;10466072;28;20094;-80
2023/07/11 08:39:33;;;;;;;0.17;0.17;;;;;;;31.87;100.00;101275.88;10434759;28;20041;-81
2023/07/11 08:44:47;;;;;;;0.08;0.08;;;;;;;32.27;99.60;101275.34;10453776;28;20488;-80
2023/07/11 08:50:13;;;;;;;0.10;0.05;;;;;;;32.51;99.01;101273.00;10441465;28;20072;-81
2023/07/11 08:55:22;;;;;;;0.10;0.10;;;;;;;32.36;99.99;101261.47;10460059;28;20048;-81
2023/07/11 09:00:25;;;;;;;1.58;0.30;;;;;;;33.30;100.00;101262.75;10437294;28;20073;-80
2023/07/11 09:05:41;;;;;;;0.20;0.20;;;;;;;32.80;95.53;101251.72;10439810;28;20402;-80
2023/07/11 09:11:15;;;;;;;0.20;0.10;;;;;;;33.05;97.53;101250.13;10452920;28;20049;-80
2023/07/11 09:16:37;;;;;;;0.20;0.20;;;;;;;33.05;98.71;101247.47;10422587;28;20099;-81
2023/07/11 09:22:09;;;;;;;0.15;0.15;;;;;;;32.71;98.55;101242.44;10441960;28;20140;-80
2023/07/11 09:27:23;;;;;;;0.60;0.40;;;;;;;33.72;91.13;101233.34;10463124;28;20041;-80
2023/07/11 09:32:35;;;;;;;0.00;0.00;;;;;;;33.47;95.69;101234.97;10446207;28;20045;-80
2023/07/11 09:37:42;;;;;;;0.00;0.00;;;;;;;32.43;92.01;101237.97;10451385;28;20511;-80
2023/07/11 09:42:50;;;;;;;0.40;0.30;;;;;;;33.81;91.75;101238.06;10452279;28;20129;-80
2023/07/11 09:48:10;;;;;;;0.17;0.08;;;;;;;33.41;92.54;101232.72;10439174;28;20054;-80
2023/07/11 09:53:16;;;;;;;0.10;0.10;;;;;;;33.85;89.69;101226.25;10463673;28;20057;-80
2023/07/11 09:58:18;;;;;;;0.15;0.15;;;;;;;32.22;91.63;101232.97;10459638;28;20051;-80
2023/07/11 10:03:25;;;;;;;0.57;0.25;;;;;;;31.87;92.00;101227.94;10480877;28;20369;-80
2023/07/11 10:08:33;;;;;;;0.00;0.00;;;;;;;32.72;89.53;101214.81;10457916;28;20037;-80
2023/07/11 10:13:34;;;;;;;0.10;0.10;;;;;;;33.53;88.50;101210.56;10441615;28;20053;-80
2023/07/11 10:18:45;;;;;;;0.20;0.20;;;;;;;32.47;91.59;101207.50;10440728;28;20312;-80
2023/07/11 10:23:50;;;;;;;1.25;0.55;;;;;;;32.14;92.54;101203.22;10433592;28;20041;-80
2023/07/11 10:29:01;;;;;;;0.13;0.13;;;;;;;33.62;92.13;101205.56;10464349;28;20571;-80
2023/07/11 10:34:50;;;;;;;0.85;0.20;;;;;;;32.93;89.44;101201.06;10437286;28;20060;-80
2023/07/11 10:39:55;;;;;;;0.35;0.28;;;;;;;32.72;92.49;101197.97;10451792;28;20059;-80
2023/07/11 10:45:19;;;;;;;0.20;0.10;;;;;;;33.08;89.85;101193.03;10432817;28;20053;-80
2023/07/11 10:50:32;;;;;;;0.20;0.00;;;;;;;33.60;89.84;101188.78;10452882;28;20036;-81
2023/07/11 10:55:43;;;;;;;0.00;0.00;;;;;;;34.77;90.79;101177.16;10472701;28;20052;-81
2023/07/11 11:01:03;;;;;;;1.52;0.32;;;;;;;33.92;88.64;101185.75;10455790;28;20516;-80
2023/07/11 11:06:33;;;;;;;0.28;0.10;;;;;;;33.43;89.09;101177.41;10457760;28;20036;-80
2023/07/11 11:11:57;;;;;;;0.17;0.05;;;;;;;34.42;91.94;101170.69;10453265;28;20041;-80
2023/07/11 11:17:19;;;;;;;0.25;0.25;;;;;;;33.62;88.35;101170.84;10452683;28;20126;-79
2023/07/11 11:22:31;;;;;;;0.10;0.10;;;;;;;33.90;90.43;101152.94;10463231;28;20061;-79
2023/07/11 11:27:40;;;;;;;0.00;0.00;;;;;;;33.54;92.59;101157.97;10452945;28;20487;-80
2023/07/11 11:33:13;;;;;;;0.10;0.10;;;;;;;34.27;94.93;101145.84;10466358;28;20045;-80
2023/07/11 11:38:30;;;;;;;0.65;0.28;;;;;;;34.51;91.48;101146.94;10470884;28;20048;-79
2023/07/11 11:43:36;;;;;;;0.40;0.30;;;;;;;33.46;90.66;101149.63;10454159;28;20041;-80
2023/07/11 11:49:00;;;;;;;1.45;0.20;;;;;;;32.93;88.94;101146.88;10429804;28;20041;-79
2023/07/11 11:54:20;;;;;;;0.00;0.00;;;;;;;33.21;91.49;101146.75;10418049;28;20041;-80
2023/07/11 11:59:25;;;;;;;0.35;0.20;;;;;;;33.63;91.62;101132.44;10438412;28;20051;-80
2023/07/11 12:04:27;;;;;;;0.43;0.28;;;;;;;33.57;88.34;101131.06;10444383;28;20041;-80
2023/07/11 12:09:46;;;;;;;0.05;0.05;;;;;;;33.47;88.29;101127.31;10433035;28;20076;-81
2023/07/11 12:14:54;;;;;;;0.28;0.20;;;;;;;33.22;86.15;101127.13;10431883;28;20052;-80
2023/07/11 12:20:08;;;;;;;1.20;0.75;;;;;;;33.81;85.38;101111.63;10468238;28;20476;-80
2023/07/11 12:25:13;;;;;;;0.05;0.00;;;;;;;33.02;84.97;101116.91;10433107;28;20037;-80
2023/07/11 12:30:15;;;;;;;0.15;0.08;;;;;;;33.45;87.89;101100.72;10452247;28;20415;-82
2023/07/11 12:35:40;;;;;;;1.02;0.32;;;;;;;34.07;92.18;101114.34;10460508;28;20041;-82
2023/07/11 12:41:17;;;;;;;0.77;0.40;;;;;;;33.84;89.23;101106.09;10462387;28;20037;-80
2023/07/11 12:46:34;;;;;;;;;;;;;;;33.73;84.47;101101.47;10454128;28;20454;-80
2023/07/11 12:51:38;;;;;;;0.00;0.00;;;;;;;33.63;86.59;101105.75;10447965;28;20401;-80
2023/07/11 12:56:45;;;;;;;0.10;0.10;;;;;;;33.25;86.83;101103.84;10447001;28;20048;-80
2023/07/11 13:01:49;;;;;;;0.30;0.30;;;;;;;34.17;87.55;101089.50;10468577;28;20045;-80
2023/07/11 13:06:54;;;;;;;0.20;0.20;;;;;;;34.48;86.85;101090.00;10453502;28;20056;-80
2023/07/11 13:11:56;;;;;;;0.38;0.20;;;;;;;34.52;85.96;101079.06;10451922;28;20088;-80
2023/07/11 13:16:57;;;;;;;2.20;0.30;;;;;;;33.90;87.58;101083.44;10453414;28;20052;-80
2023/07/11 13:21:59;;;;;;;0.30;0.30;;;;;;;34.06;86.69;101073.41;10453455;28;20033;-80
2023/07/11 13:27:04;;;;;;;0.47;0.30;;;;;;;33.63;87.42;101077.22;10453861;28;20419;-80
2023/07/11 13:32:14;;;;;;;0.00;0.00;;;;;;;33.81;85.85;101080.44;10456413;28;20127;-80
2023/07/11 13:37:29;;;;;;;0.10;0.10;;;;;;;34.39;87.12;101063.09;10435096;28;20041;-80
2023/07/11 13:42:35;;;;;;;0.45;0.30;;;;;;;34.15;85.21;101062.03;10452036;28;20107;-80
2023/07/11 13:47:43;;;;;;;0.10;0.10;;;;;;;33.77;82.17;101046.84;10434332;28;20044;-80
2023/07/11 13:52:53;;;;;;;0.15;0.15;;;;;;;33.68;80.91;101036.84;10467748;28;20041;-80
2023/07/11 13:57:55;;;;;;;0.00;0.00;;;;;;;35.01;85.48;101038.00;10451348;28;20045;-80
2023/07/11 14:02:58;;;;;;;0.10;0.10;;;;;;;33.97;82.05;101032.13;10459527;28;20399;-80
2023/07/11 14:08:01;;;;;;;4.28;0.43;;;;;;;34.55;82.49;101025.34;10442991;28;20067;-80
2023/07/11 14:13:03;;;;;;;0.22;0.22;;;;;;;34.73;82.81;101021.31;10458709;28;20049;-80
2023/07/11 14:18:04;;;;;;;0.10;0.10;;;;;;;33.86;83.90;101016.00;10465073;28;20048;-80
2023/07/11 14:23:22;;;;;;;0.45;0.10;;;;;;;35.66;83.30;101010.75;10446528;28;20040;-79
2023/07/11 14:28:24;;;;;;;1.55;0.30;;;;;;;34.94;80.44;101004.63;10442208;28;20056;-80
2023/07/11 14:33:31;;;;;;;1.00;0.10;;;;;;;34.35;84.42;101003.59;10432555;28;20045;-79
2023/07/11 14:38:34;;;;;;;0.00;0.00;;;;;;;34.41;80.64;100999.63;10452406;28;20483;-79
2023/07/11 14:43:35;;;;;;;0.20;0.10;;;;;;;35.02;83.49;100991.53;10460583;28;20029;-79
2023/07/11 14:48:37;;;;;;;0.20;0.10;;;;;;;34.69;82.14;100995.75;10444498;28;20044;-79
2023/07/11 14:53:42;;;;;;;0.10;0.10;;;;;;;35.20;86.92;100994.59;10441129;28;20036;-79
2023/07/11 14:58:47;;;;;;;0.25;0.10;;;;;;;35.44;89.66;100984.78;10481586;28;20040;-79
2023/07/11 15:03:49;;;;;;;0.25;0.20;;;;;;;34.85;89.35;100976.69;10441388;28;20092;-80
2023/07/11 15:08:53;;;;;;;0.10;0.00;;;;;;;34.97;91.50;100972.25;10456469;28;20037;-79
2023/07/11 15:13:58;;;;;;;0.10;0.10;;;;;;;34.85;87.00;100970.50;10452699;28;20387;-80
2023/07/11 15:19:21;;;;;;;0.05;0.00;;;;;;;34.76;89.84;100964.88;10453621;28;20495;-83
2023/07/11 15:24:24;;;;;;;0.00;0.00;;;;;;;33.79;87.38;100954.09;10449843;28;20394;-83
2023/07/11 15:29:26;;;;;;;0.35;0.32;;;;;;;33.95;84.95;100953.91;10433825;28;20033;-83
2023/07/11 15:34:28;;;;;;;0.08;0.08;;;;;;;35.42;87.76;100950.94;10464850;28;20856;-83
2023/07/11 15:39:29;;;;;;;0.10;0.10;;;;;;;34.83;86.91;100937.66;10445517;28;20083;-82
2023/07/11 15:44:37;;;;;;;0.08;0.08;;;;;;;35.57;87.81;100937.28;10450099;28;20506;-81
2023/07/11 15:49:39;;;;;;;0.10;0.10;;;;;;;34.97;90.16;100929.44;10457696;28;20479;-81
2023/07/11 15:54:40;;;;;;;0.10;0.10;;;;;;;34.86;89.51;100927.56;10441843;28;20070;-81
2023/07/11 15:59:42;;;;;;;0.10;0.10;;;;;;;34.85;87.77;100912.47;10440143;28;20055;-81
2023/07/11 16:04:44;;;;;;;0.10;0.10;;;;;;;35.37;86.52;100909.41;10444582;28;20052;-81
2023/07/11 16:09:46;;;;;;;0.30;0.10;;;;;;;34.91;86.02;100904.03;10435872;28;20044;-82
2023/07/11 16:14:48;;;;;;;0.52;0.25;;;;;;;35.26;88.04;100902.22;10474827;28;21477;-81
2023/07/11 16:19:50;;;;;;;0.00;0.00;;;;;;;35.28;89.73;100884.19;10436432;28;20402;-81
2023/07/11 16:24:52;;;;;;;0.00;0.00;;;;;;;35.67;90.00;100894.56;10442243;28;20048;-81
2023/07/11 16:29:54;;;;;;;0.03;0.00;;;;;;;35.65;88.22;100889.31;10432279;28;20038;-81
2023/07/11 16:34:55;;;;;;;0.65;0.10;;;;;;;36.40;93.02;100880.59;10452972;28;20144;-81
2023/07/11 16:39:57;;;;;;;0.15;0.10;;;;;;;35.28;91.63;100878.00;10467135;28;20048;-81
2023/07/11 16:44:59;;;;;;;0.00;0.00;;;;;;;35.30;91.17;100876.91;10435993;28;20553;-81
2023/07/11 16:50:01;;;;;;;0.05;0.03;;;;;;;35.22;94.42;100879.34;10434613;28;20494;-81
2023/07/11 16:55:08;;;;;;;0.00;0.00;;;;;;;34.53;94.11;100872.13;10450594;28;20045;-81
2023/07/11 17:00:21;;;;;;;0.00;0.00;;;;;;;34.85;98.02;100869.66;10433816;28;20044;-81
2023/07/11 17:05:22;;;;;;;0.00;0.00;;;;;;;34.78;100.00;100871.97;10435009;28;20048;-81
2023/07/11 17:10:28;;;;;;;0.00;0.00;;;;;;;34.49;99.92;100871.53;10443936;28;20053;-81
2023/07/11 17:15:30;;;;;;;0.00;0.00;;;;;;;35.18;100.00;100854.63;10455136;28;20052;-81
2023/07/11 17:20:32;;;;;;;0.10;0.00;;;;;;;35.14;100.00;100857.66;10434425;28;20164;-81
2023/07/11 17:25:33;;;;;;;0.10;0.08;;;;;;;35.21;100.00;100853.53;10452387;28;20135;-81
2023/07/11 17:30:36;;;;;;;0.10;0.10;;;;;;;35.35;99.28;100847.06;10418318;28;20048;-81
2023/07/11 17:35:38;;;;;;;0.15;0.13;;;;;;;35.32;100.00;100847.31;10450802;28;20136;-81
2023/07/11 17:40:41;;;;;;;0.00;0.00;;;;;;;34.94;100.00;100838.69;10471686;28;20045;-81
2023/07/11 17:45:44;;;;;;;0.00;0.00;;;;;;;35.12;100.00;100836.38;10475108;28;20164;-81
2023/07/11 17:51:10;;;;;;;0.00;0.00;;;;;;;35.03;100.00;100831.75;10441364;28;20434;-81
2023/07/11 17:56:15;;;;;;;0.08;0.08;;;;;;;34.83;100.00;100827.94;10458874;28;20116;-81
2023/07/11 18:01:20;;;;;;;0.03;0.03;;;;;;;34.92;100.00;100824.56;10468961;28;20063;-81
2023/07/11 18:06:23;;;;;;;0.00;0.00;;;;;;;35.29;100.00;100824.31;10462332;28;20492;-81
2023/07/11 18:11:25;;;;;;;2.17;0.20;;;;;;;35.07;100.00;100801.94;10462637;28;20045;-81
2023/07/11 18:16:28;;;;;;;0.00;0.00;;;;;;;34.56;100.00;100792.50;10437643;28;20045;-81
2023/07/11 18:21:30;;;;;;;0.00;0.00;;;;;;;34.38;100.00;100784.09;10458454;28;20487;-83
2023/07/11 18:26:32;;;;;;;1.85;0.15;;;;;;;34.34;100.00;100771.91;10469678;28;20082;-81
2023/07/11 18:31:33;;;;;;;0.00;0.00;;;;;;;34.70;100.00;100761.19;10444155;28;20044;-81
2023/07/11 18:36:35;;;;;;;0.00;0.00;;;;;;;36.16;100.00;100750.25;10440248;28;20553;-81
2023/07/11 18:41:37;;;;;;;0.10;0.00;;;;;;;34.62;100.00;100748.38;10441761;28;20045;-81
2023/07/11 18:46:38;;;;;;;0.00;0.00;;;;;;;33.51;100.00;100747.78;10435076;28;20041;-81
2023/07/11 18:51:40;;;;;;;0.05;0.05;;;;;;;31.19;100.00;100758.13;10436576;28;20060;-81
2023/07/11 18:56:42;;;;;;;0.03;0.03;;;;;;;30.67;100.00;100767.53;10469979;28;20450;-81
2023/07/11 19:01:44;;;;;;;0.25;0.15;;;;;;;30.63;100.00;100764.22;10449466;28;20051;-81
2023/07/11 19:06:49;;;;;;;0.77;0.43;;;;;;;30.72;100.00;100764.59;10461748;28;20074;-81
2023/07/11 19:11:51;;;;;;;1.60;0.70;;;;;;;30.10;100.00;100758.44;10466428;28;20044;-80
2023/07/11 19:16:53;;;;;;;0.20;0.20;;;;;;;29.67;100.00;100756.47;10448677;28;20148;-80
2023/07/11 19:21:54;;;;;;;0.50;0.10;;;;;;;29.44;100.00;100748.00;10436884;28;20068;-80
2023/07/11 19:26:56;;;;;;;0.10;0.10;;;;;;;29.49;100.00;100746.88;10442575;28;20057;-80
2023/07/11 19:31:57;;;;;;;0.00;0.00;;;;;;;29.52;100.00;100736.94;10449709;28;20041;-80
2023/07/11 19:36:59;;;;;;;0.10;0.10;;;;;;;29.34;100.00;100727.38;10452879;28;20123;-80
2023/07/11 19:42:01;;;;;;;0.30;0.10;;;;;;;29.00;100.00;100735.38;10435788;28;1054812;-80
2023/07/11 19:47:03;;;;;;;0.13;0.08;;;;;;;29.12;100.00;100750.63;10454355;28;20513;-80
2023/07/11 19:52:10;;;;;;;0.00;0.00;;;;;;;29.03;100.00;100740.50;10449887;28;20039;-80
2023/07/11 19:57:18;;;;;;;0.00;0.00;;;;;;;29.13;100.00;100757.63;10433136;28;20128;-80
2023/07/11 20:02:20;;;;;;;;;;;;;;;29.19;100.00;100771.50;10439204;28;20119;-80
2023/07/11 20:07:47;;;;;;;0.10;0.10;;;;;;;29.30;100.00;100790.34;10450390;28;19925;-80
2023/07/11 20:12:49;;;;;;;0.10;0.10;;;;;;;29.91;100.00;100801.16;10432209;28;20056;-80
2023/07/11 20:17:50;;;;;;;0.08;0.08;;;;;;;30.19;100.00;100794.28;10442703;28;20052;-80
2023/07/11 20:22:52;;;;;;;0.00;0.00;;;;;;;29.25;100.00;100792.38;10455757;28;20083;-80
2023/07/11 20:28:06;;;;;;;0.13;0.10;;;;;;;29.81;100.00;100790.19;10466304;28;20808;-80
2023/07/11 20:33:12;;;;;;;0.00;0.00;;;;;;;29.03;100.00;100774.97;10466703;28;20045;-81
2023/07/11 20:38:16;;;;;;;0.00;0.00;;;;;;;29.05;100.00;100738.63;10464533;28;20051;-80
2023/07/11 20:43:18;;;;;;;0.25;0.17;;;;;;;29.49;100.00;100744.22;10447282;28;20411;-80
2023/07/11 20:48:22;;;;;;;0.22;0.10;;;;;;;29.66;100.00;100749.44;10432498;28;20056;-81
2023/07/11 20:53:23;;;;;;;0.20;0.20;;;;;;;29.38;100.00;100758.09;10454386;28;20036;-81
2023/07/11 20:58:25;;;;;;;0.10;0.10;;;;;;;29.07;100.00;100773.88;10468152;28;20045;-81
2023/07/11 21:03:30;;;;;;;0.00;0.00;;;;;;;28.56;100.00;100736.78;10436681;28;20048;-80
2023/07/11 21:08:31;;;;;;;0.45;0.10;;;;;;;29.29;100.00;100749.69;10418762;28;20544;-81
2023/07/11 21:13:33;;;;;;;0.10;0.10;;;;;;;29.12;100.00;100782.44;10467312;28;20037;-81
2023/07/11 21:18:34;;;;;;;0.20;0.20;;;;;;;28.69;100.00;100805.94;10447809;28;20045;-81
2023/07/11 21:23:37;;;;;;;0.17;0.17;;;;;;;28.43;100.00;100762.22;10434369;28;20037;-81
2023/07/11 21:28:38;;;;;;;0.00;0.00;;;;;;;29.04;100.00;100776.69;10436112;28;20476;-81
2023/07/11 21:33:40;;;;;;;0.10;0.00;;;;;;;28.20;100.00;100787.19;10450552;28;20048;-81
2023/07/11 21:38:42;;;;;;;0.30;0.20;;;;;;;28.22;100.00;100798.56;10465692;28;20748;-81
2023/07/11 21:43:44;;;;;;;0.00;0.00;;;;;;;27.64;100.00;100813.69;10451167;28;20040;-81
2023/07/11 21:48:46;;;;;;;0.30;0.30;;;;;;;28.12;100.00;100796.38;10432958;28;20048;-81
2023/07/11 21:53:48;;;;;;;0.00;0.00;;;;;;;27.89;100.00;100825.78;10460154;28;20049;-81
2023/07/11 21:58:50;;;;;;;0.10;0.10;;;;;;;27.54;100.00;100815.94;10466244;28;20064;-81
2023/07/11 22:03:52;;;;;;;0.10;0.10;;;;;;;27.30;100.00;100834.59;10466208;28;20041;-81
2023/07/11 22:08:54;;;;;;;0.00;0.00;;;;;;;27.60;100.00;100857.97;10459545;28;20041;-81
2023/07/11 22:13:56;;;;;;;5.45;0.52;;;;;;;27.45;100.00;100870.09;10450297;28;20099;-81
2023/07/11 22:18:58;;;;;;;0.57;0.17;;;;;;;27.75;100.00;100834.34;10433064;28;20060;-81
2023/07/11 22:24:00;;;;;;;0.28;0.28;;;;;;;27.46;100.00;100824.19;10449543;28;20132;-82
2023/07/11 22:29:02;;;;;;;0.00;0.00;;;;;;;26.55;100.00;100842.22;10439941;28;20053;-82
2023/07/11 22:34:04;;;;;;;0.00;0.00;;;;;;;26.96;100.00;100864.34;10456498;28;20052;-81
2023/07/11 22:39:08;;;;;;;1.13;0.10;;;;;;;26.72;100.00;100877.63;10455207;28;20462;-81
2023/07/11 22:44:10;;;;;;;0.00;0.00;;;;;;;26.02;100.00;100900.69;10421972;28;20044;-82
2023/07/11 22:49:12;;;;;;;0.00;0.00;;;;;;;27.89;100.00;100886.66;10435577;28;20155;-86
2023/07/11 22:54:15;;;;;;;0.32;0.20;;;;;;;25.37;100.00;100847.69;10438017;28;20077;-85
2023/07/11 22:59:16;;;;;;;0.03;0.03;;;;;;;26.01;100.00;100830.34;10422102;28;20052;-83
2023/07/11 23:04:18;;;;;;;0.38;0.20;;;;;;;26.67;100.00;100855.84;10437614;28;20083;-83
2023/07/11 23:09:19;;;;;;;0.00;0.00;;;;;;;27.52;100.00;100844.22;10437699;28;20045;-84